Weather at John Wayne Airport-Orange County Airport

Public forecast

Using degrees Fahrenheit for public forecast. Weather courtesy of forecast.io.

Current aviation weather report (METAR) for John Wayne Airport-Orange County Airport

Retrieved 2021/01/22 22:53 UTC (60 minutes ago):

KSNA 222253Z 24008G15KT 10SM BKN028 BKN110 16/08 A2994 RMK AO2 SLP138 T01560083

Aviation forecast (TAF) for John Wayne Airport-Orange County Airport

Retrieved 2021/01/22 18:42 UTC (5 hours ago):

TAF KSNA 221740Z 2218/2318 13007KT P6SM SCT025 BKN035 FM222000 20010G18KT P6SM SCT025 BKN035 FM230200 22010KT P6SM -SHRA BKN025 OVC040 FM230500 23006KT P6SM VCSH SCT025 BKN035